Time;durP1;ratioP1;P1;durP2;ratioP2;P2;SDS_P1;SDS_P2;PMS_P1;PMS_P2;Temp;Humidity;BMP_temperature;BMP_pressure;BME280_temperature;BME280_humidity;BME280_pressure;Samples;Min_cycle;Max_cycle;Signal;HPM_P1;HPM_P2
2023/04/14 00:02:05;;;;;;;0.70;0.20;;;11.70;26.70;;;;;;6119883;23;20387;-78
2023/04/14 00:04:32;;;;;;;1.77;0.17;;;11.80;26.90;;;;;;6121722;23;20371;-80
2023/04/14 00:07:00;;;;;;;1.15;0.20;;;11.70;26.90;;;;;;6121230;23;20398;-79
2023/04/14 00:09:27;;;;;;;1.10;0.20;;;11.70;26.90;;;;;;6120966;23;20380;-79
2023/04/14 00:11:53;;;;;;;1.65;0.20;;;11.70;26.80;;;;;;6121700;23;20376;-78
2023/04/14 00:14:20;;;;;;;0.95;0.25;;;11.80;26.80;;;;;;6120298;23;20375;-81
2023/04/14 00:16:47;;;;;;;1.25;0.10;;;11.70;27.20;;;;;;6123015;23;20422;-84
2023/04/14 00:19:14;;;;;;;0.90;0.20;;;11.70;27.10;;;;;;6122193;23;20403;-78
2023/04/14 00:21:41;;;;;;;1.48;0.25;;;11.70;26.90;;;;;;6121497;23;20446;-79
2023/04/14 00:24:08;;;;;;;1.80;0.20;;;11.70;27.10;;;;;;6121194;23;20388;-79
2023/04/14 00:26:35;;;;;;;1.23;0.17;;;11.70;27.20;;;;;;6123530;23;20437;-78
2023/04/14 00:29:02;;;;;;;1.00;0.10;;;11.70;27.10;;;;;;6123901;23;20488;-79
2023/04/14 00:31:29;;;;;;;1.73;0.15;;;11.70;27.00;;;;;;6121154;23;20386;-78
2023/04/14 00:33:56;;;;;;;0.63;0.13;;;11.70;27.10;;;;;;6123485;23;20375;-80
2023/04/14 00:36:23;;;;;;;1.27;0.20;;;11.70;27.10;;;;;;6123767;23;20379;-78
2023/04/14 00:38:49;;;;;;;0.63;0.10;;;11.70;26.90;;;;;;6122799;23;20434;-81
2023/04/14 00:41:16;;;;;;;0.93;0.20;;;11.70;27.30;;;;;;6121331;23;20430;-79
2023/04/14 00:43:43;;;;;;;1.77;0.20;;;11.70;27.40;;;;;;6122630;23;20996;-79
2023/04/14 00:46:13;;;;;;;1.02;0.25;;;11.60;27.40;;;;;;6122893;23;20399;-80
2023/04/14 00:48:40;;;;;;;1.05;0.13;;;11.60;27.40;;;;;;6122716;23;20743;-82
2023/04/14 00:51:08;;;;;;;1.70;0.20;;;11.60;27.30;;;;;;6122387;23;20422;-79
2023/04/14 00:53:35;;;;;;;0.77;0.30;;;11.60;27.30;;;;;;6122138;23;20858;-78
2023/04/14 00:56:02;;;;;;;0.70;0.10;;;11.60;27.20;;;;;;6122829;23;20399;-80
2023/04/14 00:58:30;;;;;;;0.88;0.20;;;11.60;27.30;;;;;;6123975;23;20431;-79
2023/04/14 01:00:57;;;;;;;0.75;0.13;;;11.60;27.40;;;;;;6122112;23;20470;-81
2023/04/14 01:17:00;;;;;;;0.60;0.10;;;11.60;27.60;;;;;;6082106;23;20406;-83
2023/04/14 01:19:50;;;;;;;1.90;0.25;;;11.60;28.10;;;;;;6151930;23;20374;-85
2023/04/14 01:22:21;;;;;;;1.90;0.20;;;11.60;28.10;;;;;;6151874;23;20696;-82
2023/04/14 01:25:21;;;;;;;1.75;0.20;;;11.60;27.80;;;;;;6152761;23;20370;-83
2023/04/14 01:28:20;;;;;;;1.90;0.20;;;11.60;27.80;;;;;;6122487;23;20718;-83
2023/04/14 01:31:09;;;;;;;1.20;0.10;;;11.60;27.70;;;;;;6122463;23;20722;-82
2023/04/14 01:33:40;;;;;;;0.30;0.10;;;11.70;27.70;;;;;;6122000;23;20390;-83
2023/04/14 01:36:11;;;;;;;0.43;0.10;;;11.70;27.70;;;;;;6123074;23;20498;-84
2023/04/14 01:38:39;;;;;;;1.63;0.00;;;11.70;27.70;;;;;;6119065;23;20489;-84
2023/04/14 01:41:08;;;;;;;0.40;0.10;;;11.70;27.70;;;;;;6122384;23;20388;-83
2023/04/14 01:43:41;;;;;;;1.33;0.13;;;11.70;27.90;;;;;;6121407;23;20384;-85
2023/04/14 01:46:12;;;;;;;1.65;0.20;;;11.70;27.90;;;;;;6122353;23;20379;-84
2023/04/14 01:48:42;;;;;;;0.47;0.10;;;11.60;27.90;;;;;;6121694;23;20434;-83
2023/04/14 01:51:12;;;;;;;0.30;0.17;;;11.60;27.80;;;;;;6122599;23;20415;-83
2023/04/14 01:53:42;;;;;;;0.50;0.10;;;11.70;27.70;;;;;;6121049;23;20384;-83
2023/04/14 01:56:11;;;;;;;0.40;0.10;;;11.60;28.00;;;;;;6122532;23;20383;-83
2023/04/14 01:58:40;;;;;;;0.93;0.20;;;11.60;27.90;;;;;;6121856;23;20458;-84
2023/04/14 02:01:07;;;;;;;0.47;0.10;;;11.60;27.90;;;;;;6121257;23;20485;-83
2023/04/14 02:03:35;;;;;;;2.47;0.20;;;11.60;28.10;;;;;;6098696;23;20460;-84
2023/04/14 02:06:05;;;;;;;0.30;0.08;;;11.60;28.10;;;;;;6092730;23;20449;-83
2023/04/14 02:08:36;;;;;;;0.60;0.10;;;11.60;28.30;;;;;;6092591;23;20384;-83
2023/04/14 02:11:03;;;;;;;0.47;0.20;;;11.60;28.30;;;;;;6093208;23;20884;-83
2023/04/14 02:13:31;;;;;;;0.63;0.10;;;11.50;28.40;;;;;;6096665;23;20377;-90
2023/04/14 02:16:00;;;;;;;0.50;0.20;;;11.50;28.50;;;;;;6098533;23;20377;-88
2023/04/14 02:18:30;;;;;;;0.38;0.10;;;11.50;28.40;;;;;;6095444;23;20476;-88
2023/04/14 02:21:00;;;;;;;0.30;0.10;;;11.50;28.40;;;;;;6097551;23;20412;-89
2023/04/14 02:23:27;;;;;;;1.60;0.10;;;11.50;28.40;;;;;;6097207;23;20389;-89
2023/04/14 02:26:03;;;;;;;0.22;0.00;;;11.50;28.70;;;;;;6099271;23;20373;-88
2023/04/14 02:28:35;;;;;;;0.20;0.10;;;11.50;28.40;;;;;;6097610;23;20385;-89
2023/04/14 02:31:07;;;;;;;0.50;0.30;;;11.50;28.50;;;;;;6097217;23;20384;-89
2023/04/14 02:33:36;;;;;;;0.35;0.00;;;11.50;28.60;;;;;;6100165;23;20381;-89
2023/04/14 02:36:12;;;;;;;0.43;0.10;;;11.50;28.70;;;;;;6098143;23;20416;-89
2023/04/14 02:38:45;;;;;;;0.50;0.00;;;11.50;28.80;;;;;;6098574;23;20392;-90
2023/04/14 02:41:20;;;;;;;1.00;0.10;;;11.50;28.90;;;;;;6097255;23;20425;-90
2023/04/14 02:43:54;;;;;;;0.90;0.10;;;11.40;28.90;;;;;;6095206;23;20432;-90
2023/04/14 02:46:24;;;;;;;0.85;0.10;;;11.40;29.00;;;;;;6095348;23;20709;-88
2023/04/14 02:48:54;;;;;;;0.82;0.10;;;11.40;29.00;;;;;;6095378;23;20374;-88
2023/04/14 02:51:24;;;;;;;0.50;0.10;;;11.40;29.00;;;;;;6092941;23;20382;-84
2023/04/14 02:53:51;;;;;;;0.70;0.10;;;11.40;28.80;;;;;;6091704;23;20495;-84
2023/04/14 02:56:19;;;;;;;0.90;0.10;;;11.40;29.10;;;;;;6094265;23;20439;-82
2023/04/14 02:58:47;;;;;;;0.80;0.10;;;11.40;29.00;;;;;;6092046;23;20378;-82
2023/04/14 03:01:15;;;;;;;0.73;0.03;;;11.40;28.90;;;;;;6092522;23;20468;-82
2023/04/14 03:03:42;;;;;;;1.48;0.03;;;11.40;28.60;;;;;;6091103;23;20859;-83
2023/04/14 03:06:14;;;;;;;0.38;0.08;;;11.40;28.90;;;;;;6092598;23;20407;-81
2023/04/14 03:08:43;;;;;;;1.42;0.10;;;11.40;28.90;;;;;;6093276;23;20374;-82
2023/04/14 03:11:13;;;;;;;0.50;0.30;;;11.40;29.10;;;;;;6092753;23;20373;-81
2023/04/14 03:13:42;;;;;;;0.20;0.10;;;11.30;28.80;;;;;;6091432;23;20378;-82
2023/04/14 03:16:10;;;;;;;1.33;0.10;;;11.40;29.10;;;;;;6094066;23;20381;-81
2023/04/14 03:18:38;;;;;;;1.15;0.08;;;11.30;29.00;;;;;;6091436;23;20379;-81
2023/04/14 03:21:05;;;;;;;0.77;0.08;;;11.30;29.20;;;;;;6092797;23;20448;-83
2023/04/14 03:23:35;;;;;;;1.20;0.10;;;11.30;29.00;;;;;;6092267;23;20766;-82
2023/04/14 03:26:03;;;;;;;0.80;0.10;;;11.20;29.10;;;;;;6091914;23;20401;-84
2023/04/14 03:28:33;;;;;;;0.85;0.10;;;11.30;29.00;;;;;;6092471;23;20453;-83
2023/04/14 03:31:05;;;;;;;0.50;0.10;;;11.30;28.90;;;;;;6103776;23;20381;-82
2023/04/14 03:33:32;;;;;;;0.93;0.10;;;11.30;29.00;;;;;;6094249;23;20737;-82
2023/04/14 03:36:00;;;;;;;1.17;0.10;;;11.30;28.90;;;;;;6091445;23;20373;-82
2023/04/14 03:38:28;;;;;;;0.43;0.10;;;11.30;29.00;;;;;;6093875;23;20732;-81
2023/04/14 03:40:58;;;;;;;0.35;0.10;;;11.30;28.90;;;;;;6091331;23;20396;-83
2023/04/14 03:43:27;;;;;;;0.60;0.10;;;11.30;28.90;;;;;;6094238;23;20441;-83
2023/04/14 03:45:55;;;;;;;0.70;0.00;;;11.30;28.90;;;;;;6091599;23;20472;-82
2023/04/14 03:48:25;;;;;;;0.50;0.05;;;11.20;29.00;;;;;;6092642;23;20381;-81
2023/04/14 03:50:53;;;;;;;0.57;0.00;;;11.30;28.60;;;;;;6091249;23;20382;-80
2023/04/14 03:53:21;;;;;;;0.75;0.10;;;11.30;28.80;;;;;;6092623;23;20448;-83
2023/04/14 03:55:51;;;;;;;0.30;0.00;;;11.30;28.80;;;;;;6091823;23;20391;-81
2023/04/14 03:58:20;;;;;;;0.40;0.20;;;11.30;28.60;;;;;;6094765;23;20377;-82
2023/04/14 04:00:48;;;;;;;0.10;0.10;;;11.30;28.50;;;;;;6094591;23;20464;-83
2023/04/14 04:03:17;;;;;;;1.63;0.03;;;11.30;28.50;;;;;;6095302;23;20382;-84
2023/04/14 04:05:45;;;;;;;1.75;0.10;;;11.30;28.70;;;;;;6096096;23;20381;-85
2023/04/14 04:08:14;;;;;;;0.70;0.00;;;11.30;28.80;;;;;;6095013;23;20468;-85
2023/04/14 04:10:42;;;;;;;0.30;0.10;;;11.30;28.50;;;;;;6095495;23;20681;-84
2023/04/14 04:13:14;;;;;;;0.77;0.10;;;11.30;28.60;;;;;;6095016;23;20452;-84
2023/04/14 04:15:41;;;;;;;0.25;0.00;;;11.30;28.50;;;;;;6096725;23;20369;-85
2023/04/14 04:18:10;;;;;;;1.95;0.10;;;11.30;28.70;;;;;;6058794;23;20460;-84
2023/04/14 04:20:39;;;;;;;0.43;0.10;;;11.30;28.50;;;;;;6089526;23;20374;-84
2023/04/14 04:23:08;;;;;;;1.48;0.10;;;11.30;28.40;;;;;;6105547;23;20432;-83
2023/04/14 04:25:37;;;;;;;0.40;0.08;;;11.30;28.50;;;;;;6095746;23;20725;-82
2023/04/14 04:28:04;;;;;;;0.60;0.10;;;11.30;28.50;;;;;;6096061;23;20761;-80
2023/04/14 04:30:32;;;;;;;0.50;0.10;;;11.30;28.50;;;;;;6095459;23;20381;-82
2023/04/14 04:33:02;;;;;;;0.40;0.10;;;11.30;28.30;;;;;;6094650;23;20397;-83
2023/04/14 04:35:31;;;;;;;0.50;0.10;;;11.30;29.00;;;;;;6095351;23;20739;-84
2023/04/14 04:37:59;;;;;;;0.55;0.10;;;11.30;28.30;;;;;;6096087;23;20452;-84
2023/04/14 04:40:26;;;;;;;0.80;0.20;;;11.30;28.50;;;;;;6095221;23;20384;-84
2023/04/14 04:42:53;;;;;;;1.13;0.10;;;11.20;28.60;;;;;;6094316;23;20440;-82
2023/04/14 04:45:46;;;;;;;1.40;0.10;;;11.30;28.30;;;;;;6095026;23;20432;-83
2023/04/14 04:48:13;;;;;;;1.20;0.10;;;11.30;28.50;;;;;;6119254;23;20376;-82
2023/04/14 04:50:40;;;;;;;0.90;0.10;;;11.30;28.40;;;;;;6094990;23;20460;-85
2023/04/14 04:53:07;;;;;;;1.70;0.10;;;11.30;28.60;;;;;;6094789;23;20377;-82
2023/04/14 04:55:34;;;;;;;0.55;0.10;;;11.30;28.20;;;;;;6095210;23;20381;-83
2023/04/14 04:58:01;;;;;;;0.50;0.10;;;11.20;28.30;;;;;;6094936;23;20764;-82
2023/04/14 05:00:28;;;;;;;0.40;0.10;;;11.20;28.40;;;;;;6095162;23;20385;-82
2023/04/14 05:02:55;;;;;;;2.03;0.10;;;11.30;28.40;;;;;;6094577;23;20452;-81
2023/04/14 05:05:22;;;;;;;0.20;0.10;;;11.30;28.40;;;;;;6094975;23;20373;-80
2023/04/14 05:07:49;;;;;;;0.50;0.10;;;11.30;28.60;;;;;;6095560;23;20400;-84
2023/04/14 05:10:16;;;;;;;0.73;0.22;;;11.20;28.60;;;;;;6092438;23;20871;-80
2023/04/14 05:12:43;;;;;;;1.52;0.20;;;11.30;28.50;;;;;;6093791;23;20546;-81
2023/04/14 05:15:10;;;;;;;0.70;0.10;;;11.30;28.60;;;;;;6093063;23;20373;-82
2023/04/14 05:17:37;;;;;;;1.65;0.03;;;11.30;28.70;;;;;;6093279;23;20554;-82
2023/04/14 05:20:05;;;;;;;0.20;0.00;;;11.30;28.70;;;;;;6092956;23;20440;-82
2023/04/14 05:22:32;;;;;;;0.40;0.10;;;11.20;28.80;;;;;;6093274;23;20381;-83
2023/04/14 05:24:59;;;;;;;0.47;0.30;;;11.20;28.80;;;;;;6092797;23;20405;-82
2023/04/14 05:27:26;;;;;;;0.70;0.28;;;11.20;28.80;;;;;;6093614;23;20452;-82
2023/04/14 05:29:55;;;;;;;0.50;0.10;;;11.20;28.40;;;;;;6092887;23;20381;-82
2023/04/14 05:32:22;;;;;;;0.70;0.10;;;11.20;29.30;;;;;;6093931;23;20700;-81
2023/04/14 05:34:49;;;;;;;1.40;0.10;;;11.20;28.60;;;;;;6093419;23;20740;-83
2023/04/14 05:37:18;;;;;;;2.60;0.10;;;11.30;28.60;;;;;;6091835;23;20449;-81
2023/04/14 05:39:45;;;;;;;0.52;0.10;;;11.30;28.50;;;;;;6093418;23;20377;-83
2023/04/14 05:42:12;;;;;;;0.40;0.10;;;11.30;28.80;;;;;;6092746;23;20381;-79
2023/04/14 05:44:39;;;;;;;0.60;0.10;;;11.30;28.20;;;;;;6093183;23;20378;-80
2023/04/14 05:47:06;;;;;;;1.30;0.28;;;11.30;28.40;;;;;;6092447;23;20377;-82
2023/04/14 05:49:32;;;;;;;2.63;0.30;;;11.40;28.30;;;;;;6093256;23;20437;-81
2023/04/14 05:52:00;;;;;;;0.60;0.20;;;11.50;27.90;;;;;;6091161;23;20407;-81
2023/04/14 05:54:26;;;;;;;0.30;0.10;;;11.50;28.20;;;;;;6092916;23;20396;-80
2023/04/14 05:56:53;;;;;;;0.70;0.10;;;11.60;27.80;;;;;;6092832;23;20874;-84
2023/04/14 05:59:20;;;;;;;0.80;0.10;;;11.70;27.60;;;;;;6056382;23;20501;-85
2023/04/14 06:01:47;;;;;;;1.45;0.10;;;11.80;27.60;;;;;;6086277;23;20377;-84
2023/04/14 06:04:14;;;;;;;1.60;0.10;;;11.80;27.70;;;;;;6092537;23;20737;-82
2023/04/14 06:06:42;;;;;;;0.50;0.10;;;11.90;27.30;;;;;;6093320;23;20386;-84
2023/04/14 06:09:08;;;;;;;0.30;0.13;;;12.00;27.40;;;;;;6093062;23;20772;-84
2023/04/14 06:11:36;;;;;;;1.23;0.10;;;12.00;27.30;;;;;;6094306;23;20374;-83
2023/04/14 06:14:06;;;;;;;0.60;0.10;;;12.20;27.20;;;;;;6093049;23;20391;-85
2023/04/14 06:16:33;;;;;;;4.03;0.50;;;12.20;27.40;;;;;;6097405;23;20373;-86
2023/04/14 06:19:00;;;;;;;0.40;0.00;;;12.30;27.10;;;;;;6097302;23;20679;-84
2023/04/14 06:21:27;;;;;;;0.75;0.20;;;12.30;26.80;;;;;;6099467;23;20404;-84
2023/04/14 06:23:54;;;;;;;0.10;0.00;;;12.40;26.90;;;;;;6099916;23;20371;-84
2023/04/14 06:26:21;;;;;;;0.57;0.17;;;12.40;27.00;;;;;;6098472;23;20401;-83
2023/04/14 06:28:48;;;;;;;1.63;0.20;;;12.50;26.60;;;;;;6099070;23;20376;-81
2023/04/14 06:31:15;;;;;;;1.67;0.10;;;12.50;26.50;;;;;;6123728;23;20712;-83
2023/04/14 06:33:41;;;;;;;0.60;0.10;;;12.60;26.60;;;;;;6099172;23;20372;-83
2023/04/14 06:36:08;;;;;;;1.50;0.10;;;12.60;26.60;;;;;;6097743;23;20371;-85
2023/04/14 06:38:35;;;;;;;1.88;0.20;;;12.70;26.50;;;;;;6097756;23;20443;-85
2023/04/14 06:41:02;;;;;;;1.63;0.10;;;12.70;26.50;;;;;;6123017;23;20423;-84
2023/04/14 06:43:29;;;;;;;1.10;0.10;;;12.70;26.80;;;;;;6097899;23;20416;-86
2023/04/14 06:45:56;;;;;;;1.90;0.20;;;12.80;26.30;;;;;;6096653;23;20739;-83
2023/04/14 06:48:23;;;;;;;1.55;0.15;;;12.80;26.10;;;;;;6097844;23;20694;-83
2023/04/14 06:50:54;;;;;;;0.38;0.10;;;12.90;26.60;;;;;;6098288;23;20431;-85
2023/04/14 06:53:22;;;;;;;0.80;0.10;;;12.90;25.60;;;;;;6097030;23;20527;-86
2023/04/14 06:55:57;;;;;;;0.53;0.10;;;13.00;25.90;;;;;;6087480;23;20386;-85
2023/04/14 06:58:29;;;;;;;0.65;0.10;;;13.10;26.10;;;;;;6096528;23;20439;-85
2023/04/14 07:00:57;;;;;;;1.17;0.20;;;13.10;25.20;;;;;;6086780;23;20385;-85
2023/04/14 07:03:25;;;;;;;1.10;0.20;;;13.20;25.70;;;;;;6096230;23;20846;-86
2023/04/14 07:05:52;;;;;;;2.15;0.22;;;13.30;25.70;;;;;;6087607;23;20382;-85
2023/04/14 07:08:20;;;;;;;1.33;0.10;;;13.40;25.80;;;;;;6095427;23;20377;-87
2023/04/14 07:10:47;;;;;;;0.70;0.10;;;13.40;25.50;;;;;;6088674;23;20381;-84
2023/04/14 07:13:14;;;;;;;2.05;0.10;;;13.50;25.10;;;;;;6094347;23;20385;-86
2023/04/14 07:15:46;;;;;;;1.02;0.10;;;13.60;25.20;;;;;;6097713;23;20443;-86
2023/04/14 07:18:14;;;;;;;2.38;0.10;;;13.70;25.50;;;;;;6096448;23;20471;-84
2023/04/14 07:20:41;;;;;;;7.50;0.60;;;13.80;24.00;;;;;;6121943;23;20395;-85
2023/04/14 07:23:08;;;;;;;1.88;0.10;;;13.80;23.60;;;;;;6097243;23;20435;-85
2023/04/14 07:25:35;;;;;;;3.40;0.30;;;13.80;24.20;;;;;;6096446;23;20455;-84
2023/04/14 07:28:03;;;;;;;2.63;0.20;;;13.80;23.80;;;;;;6097566;23;20375;-87
2023/04/14 07:30:31;;;;;;;2.38;0.20;;;13.90;23.50;;;;;;6084147;23;20843;-85
2023/04/14 07:32:59;;;;;;;1.70;0.32;;;13.90;23.40;;;;;;6089617;23;20389;-85
2023/04/14 07:35:26;;;;;;;1.50;0.10;;;13.90;24.10;;;;;;6069003;23;20379;-86
2023/04/14 07:37:53;;;;;;;1.33;0.10;;;13.90;23.40;;;;;;6097760;23;20501;-85
2023/04/14 07:40:20;;;;;;;1.40;0.10;;;13.90;23.10;;;;;;6084652;23;20378;-85
2023/04/14 07:42:47;;;;;;;2.72;0.20;;;13.90;23.40;;;;;;6097351;23;20391;-86
2023/04/14 07:45:14;;;;;;;1.00;0.10;;;14.00;23.20;;;;;;6096953;23;20456;-83
2023/04/14 07:47:41;;;;;;;2.42;0.10;;;14.00;23.00;;;;;;6096556;23;20387;-87
2023/04/14 07:50:08;;;;;;;0.20;0.10;;;14.10;22.60;;;;;;6097663;23;20383;-87
2023/04/14 07:52:36;;;;;;;1.20;0.10;;;14.30;23.80;;;;;;6096994;23;20371;-87
2023/04/14 07:55:03;;;;;;;2.50;0.30;;;14.40;22.70;;;;;;6097996;23;20379;-85
2023/04/14 07:57:32;;;;;;;5.20;0.20;;;14.50;22.70;;;;;;6096849;23;20376;-87
2023/04/14 07:59:59;;;;;;;2.17;0.20;;;14.50;22.60;;;;;;6122941;23;20391;-86
2023/04/14 08:02:26;;;;;;;0.90;0.17;;;14.50;22.70;;;;;;6096560;23;20379;-86
2023/04/14 08:04:53;;;;;;;2.35;0.30;;;14.60;23.50;;;;;;6097290;23;20422;-88
2023/04/14 08:07:19;;;;;;;2.28;0.10;;;14.70;23.10;;;;;;6097613;23;20372;-85
2023/04/14 08:09:48;;;;;;;1.27;0.10;;;14.80;23.50;;;;;;6121839;23;20360;-86
2023/04/14 08:12:15;;;;;;;1.93;0.17;;;15.00;22.40;;;;;;6097843;23;20379;-86
2023/04/14 08:14:41;;;;;;;2.00;0.20;;;15.00;21.90;;;;;;6096121;23;20434;-87
2023/04/14 08:17:08;;;;;;;1.70;0.47;;;15.10;21.80;;;;;;6123228;23;20380;-87
2023/04/14 08:19:35;;;;;;;5.88;0.80;;;15.20;21.70;;;;;;6096703;23;20376;-86
2023/04/14 08:22:02;;;;;;;3.72;0.20;;;15.30;21.90;;;;;;6097876;23;20904;-87
2023/04/14 08:24:29;;;;;;;1.60;0.10;;;15.30;21.10;;;;;;6096666;23;20534;-85
2023/04/14 08:26:57;;;;;;;3.08;0.20;;;15.40;21.70;;;;;;6097560;23;20375;-87
2023/04/14 08:29:23;;;;;;;0.30;0.10;;;15.60;21.50;;;;;;6096060;23;20381;-85
2023/04/14 08:31:50;;;;;;;2.13;0.22;;;15.60;21.90;;;;;;6097346;23;20371;-87
2023/04/14 08:34:17;;;;;;;3.47;0.35;;;15.80;21.60;;;;;;6097243;23;20391;-87
2023/04/14 08:36:54;;;;;;;1.08;0.10;;;15.90;20.90;;;;;;6098826;23;20410;-86
2023/04/14 08:39:21;;;;;;;2.17;0.30;;;16.00;20.60;;;;;;6097525;23;20371;-87
2023/04/14 08:41:51;;;;;;;0.60;0.10;;;16.00;20.70;;;;;;6096397;23;20368;-86
2023/04/14 08:44:18;;;;;;;4.55;0.30;;;16.10;20.90;;;;;;6088586;23;20453;-85
2023/04/14 08:46:49;;;;;;;1.10;0.13;;;16.20;20.90;;;;;;6121816;23;20430;-87
2023/04/14 08:49:34;;;;;;;1.10;0.20;;;16.20;20.30;;;;;;6090215;23;20763;-85
2023/04/14 08:52:05;;;;;;;2.67;0.10;;;16.20;20.80;;;;;;6097997;23;20376;-85
2023/04/14 08:54:32;;;;;;;2.42;0.20;;;16.10;20.40;;;;;;6088263;23;20381;-86
2023/04/14 08:57:00;;;;;;;2.30;0.30;;;16.20;20.90;;;;;;6097677;23;20402;-86
2023/04/14 08:59:27;;;;;;;1.40;0.10;;;16.20;20.00;;;;;;6088686;23;20387;-85
2023/04/14 09:01:55;;;;;;;0.90;0.10;;;16.40;20.70;;;;;;6096169;23;20377;-85
2023/04/14 09:04:23;;;;;;;0.80;0.10;;;16.40;20.40;;;;;;6099127;23;20372;-86
2023/04/14 09:06:51;;;;;;;2.92;0.40;;;16.60;21.00;;;;;;6097663;23;20376;-87
2023/04/14 09:09:18;;;;;;;0.70;0.10;;;16.60;19.50;;;;;;6094064;23;20401;-87
2023/04/14 09:11:45;;;;;;;0.60;0.20;;;16.80;20.20;;;;;;6097216;23;20371;-84
2023/04/14 09:14:13;;;;;;;1.10;0.10;;;17.00;20.20;;;;;;6099450;23;20454;-87
2023/04/14 09:16:40;;;;;;;1.00;0.10;;;17.20;19.10;;;;;;6098221;23;20375;-87
2023/04/14 09:19:08;;;;;;;3.25;0.20;;;17.20;19.60;;;;;;6098965;23;20384;-86
2023/04/14 09:21:36;;;;;;;1.33;0.10;;;17.30;19.70;;;;;;6085780;23;20373;-85
2023/04/14 09:24:28;;;;;;;0.80;0.10;;;17.30;18.90;;;;;;6102192;23;20363;-86
2023/04/14 09:27:00;;;;;;;0.60;0.08;;;17.20;19.20;;;;;;6086667;23;20919;-87
2023/04/14 09:29:28;;;;;;;1.80;0.10;;;17.20;19.80;;;;;;6092070;23;20769;-85
2023/04/14 09:31:55;;;;;;;1.08;0.10;;;17.30;19.80;;;;;;6093356;23;20469;-86
2023/04/14 09:34:21;;;;;;;0.40;0.10;;;17.30;19.20;;;;;;6097662;23;20423;-87
2023/04/14 09:37:04;;;;;;;2.60;0.17;;;17.30;18.80;;;;;;6098968;23;20380;-86
2023/04/14 09:39:32;;;;;;;1.90;0.10;;;17.10;18.70;;;;;;6081031;23;20428;-85
2023/04/14 09:42:00;;;;;;;1.90;0.20;;;17.20;19.70;;;;;;6070398;23;20769;-86
2023/04/14 09:44:27;;;;;;;3.22;0.10;;;17.10;19.30;;;;;;6068943;23;20369;-84
2023/04/14 09:47:03;;;;;;;2.20;0.10;;;17.10;19.20;;;;;;6069699;23;20378;-85
2023/04/14 09:49:32;;;;;;;2.60;0.10;;;17.20;19.30;;;;;;6093915;23;20700;-88
2023/04/14 09:52:07;;;;;;;2.35;0.15;;;17.20;19.70;;;;;;6069687;23;20441;-86
2023/04/14 09:54:34;;;;;;;1.20;0.10;;;17.30;20.00;;;;;;6097904;23;20446;-85
2023/04/14 09:57:01;;;;;;;0.82;0.10;;;17.40;19.80;;;;;;6098743;23;20419;-84
2023/04/14 09:59:38;;;;;;;1.23;0.10;;;17.50;19.00;;;;;;6097611;23;20380;-86
2023/04/14 10:02:07;;;;;;;1.50;0.27;;;17.50;20.20;;;;;;6098275;23;20727;-86
2023/04/14 10:04:36;;;;;;;3.60;0.25;;;17.50;19.30;;;;;;6085200;23;20391;-84
2023/04/14 10:07:09;;;;;;;0.40;0.10;;;17.40;19.30;;;;;;6087403;23;20373;-86
2023/04/14 10:09:37;;;;;;;1.80;0.30;;;17.40;19.60;;;;;;6085973;23;20364;-87
2023/04/14 10:12:16;;;;;;;1.33;0.10;;;17.30;19.20;;;;;;6097713;23;20368;-87
2023/04/14 10:14:43;;;;;;;0.35;0.10;;;17.40;19.70;;;;;;6085260;23;20444;-86
2023/04/14 10:17:10;;;;;;;0.30;0.08;;;17.50;18.90;;;;;;6104307;23;20710;-87
2023/04/14 10:19:38;;;;;;;0.60;0.10;;;17.60;19.00;;;;;;6121258;23;20391;-86
2023/04/14 10:22:05;;;;;;;1.40;0.00;;;17.60;19.30;;;;;;6122716;23;20376;-85
2023/04/14 10:24:33;;;;;;;0.50;0.00;;;17.60;18.70;;;;;;6121911;23;20710;-87
2023/04/14 10:27:02;;;;;;;0.70;0.10;;;17.60;18.30;;;;;;6122691;23;20600;-85
2023/04/14 10:29:29;;;;;;;0.90;0.20;;;17.50;18.10;;;;;;6121589;23;20395;-86
2023/04/14 10:32:07;;;;;;;1.70;0.10;;;17.60;19.70;;;;;;6122676;23;20392;-86
2023/04/14 10:34:36;;;;;;;0.10;0.08;;;17.80;19.70;;;;;;6120729;23;20383;-86
2023/04/14 10:37:15;;;;;;;0.20;0.10;;;18.00;18.60;;;;;;6122837;23;20380;-87
2023/04/14 10:39:42;;;;;;;0.80;0.20;;;18.20;19.20;;;;;;6121314;23;20391;-86
2023/04/14 10:42:09;;;;;;;0.65;0.08;;;18.50;19.60;;;;;;6122848;23;20375;-85
2023/04/14 10:44:36;;;;;;;0.50;0.10;;;18.90;18.50;;;;;;6121481;23;20376;-84
2023/04/14 10:47:06;;;;;;;0.50;0.10;;;19.10;18.50;;;;;;6121631;23;20671;-86
2023/04/14 10:49:36;;;;;;;0.77;0.10;;;19.30;17.50;;;;;;6121702;23;20455;-87
2023/04/14 10:52:07;;;;;;;0.30;0.10;;;19.40;18.60;;;;;;6122630;23;20394;-88
2023/04/14 10:54:47;;;;;;;0.40;0.10;;;19.50;18.30;;;;;;6121099;23;20387;-87
2023/04/14 10:57:14;;;;;;;0.30;0.00;;;19.80;18.50;;;;;;6122045;23;20375;-86
2023/04/14 10:59:47;;;;;;;0.10;0.00;;;20.00;18.50;;;;;;6121259;23;20372;-83
2023/04/14 11:02:31;;;;;;;0.10;0.00;;;20.30;18.50;;;;;;6122400;23;20411;-85
2023/04/14 11:05:03;;;;;;;0.40;0.00;;;20.60;18.10;;;;;;6093655;23;20369;-87
2023/04/14 11:07:35;;;;;;;0.63;0.03;;;20.50;16.10;;;;;;6092323;23;20428;-86
2023/04/14 11:10:20;;;;;;;0.30;0.10;;;20.40;17.50;;;;;;6121087;23;20454;-85
2023/04/14 11:13:00;;;;;;;0.17;0.00;;;20.20;16.70;;;;;;6145240;23;20458;-86
2023/04/14 11:15:44;;;;;;;0.28;0.10;;;20.20;18.00;;;;;;6146431;23;20376;-88
2023/04/14 11:18:18;;;;;;;2.63;1.15;;;20.10;17.40;;;;;;6091957;23;20369;-87
2023/04/14 11:20:46;;;;;;;3.45;2.20;;;20.30;17.60;;;;;;6093960;23;20385;-87
2023/04/14 11:23:14;;;;;;;0.95;0.20;;;20.40;17.00;;;;;;6122333;23;20729;-85
2023/04/14 11:25:41;;;;;;;0.60;0.10;;;20.50;17.30;;;;;;6146298;23;20434;-86
2023/04/14 11:28:07;;;;;;;0.30;0.10;;;20.50;16.50;;;;;;6145574;23;20413;-86
2023/04/14 11:30:34;;;;;;;0.20;0.05;;;20.60;17.30;;;;;;6146158;23;20380;-86
2023/04/14 11:33:01;;;;;;;0.32;0.00;;;20.80;17.50;;;;;;6145457;23;20719;-88
2023/04/14 11:35:30;;;;;;;0.47;0.08;;;20.90;16.80;;;;;;6146194;23;20380;-89
2023/04/14 11:37:59;;;;;;;0.70;0.10;;;21.00;17.30;;;;;;6122102;23;20376;-87
2023/04/14 11:40:26;;;;;;;0.22;0.00;;;21.20;16.80;;;;;;6146337;23;20379;-88
2023/04/14 11:42:57;;;;;;;0.63;0.10;;;21.30;16.50;;;;;;6145652;23;20752;-87
2023/04/14 11:45:29;;;;;;;0.40;0.10;;;21.40;17.90;;;;;;6145833;23;20461;-87
2023/04/14 11:48:04;;;;;;;0.20;0.00;;;21.60;17.60;;;;;;6145380;23;20395;-86
2023/04/14 11:50:33;;;;;;;0.20;0.20;;;21.50;16.30;;;;;;6123267;23;20427;-86
2023/04/14 11:53:01;;;;;;;0.20;0.00;;;21.70;16.40;;;;;;6145436;23;20375;-88
2023/04/14 11:55:29;;;;;;;0.82;0.10;;;21.80;16.20;;;;;;6146515;23;20766;-88
2023/04/14 11:57:56;;;;;;;1.90;0.10;;;21.90;16.50;;;;;;6145284;23;20880;-87
2023/04/14 12:00:24;;;;;;;0.10;0.00;;;21.90;16.30;;;;;;6146304;23;20731;-88
2023/04/14 12:02:51;;;;;;;0.43;0.05;;;22.00;17.00;;;;;;6146177;23;20419;-88
2023/04/14 12:05:30;;;;;;;0.35;0.10;;;22.30;17.10;;;;;;6116151;23;20432;-88
2023/04/14 12:07:58;;;;;;;0.60;0.05;;;22.30;15.70;;;;;;6092915;23;20393;-88
2023/04/14 12:10:27;;;;;;;0.10;0.00;;;22.40;15.90;;;;;;6092764;23;20380;-87
2023/04/14 12:13:03;;;;;;;0.30;0.10;;;22.50;16.20;;;;;;6092394;23;20755;-89
2023/04/14 12:15:35;;;;;;;0.28;0.03;;;22.70;16.70;;;;;;6109448;23;20842;-87
2023/04/14 12:18:14;;;;;;;0.25;0.00;;;22.90;16.70;;;;;;6122150;23;20371;-87
2023/04/14 12:20:52;;;;;;;0.20;0.00;;;23.10;17.40;;;;;;6122962;23;20403;-85
2023/04/14 12:23:20;;;;;;;0.10;0.00;;;23.30;16.50;;;;;;6122764;23;20520;-88
2023/04/14 12:25:50;;;;;;;0.40;0.05;;;23.60;16.70;;;;;;6123902;23;20399;-88
2023/04/14 12:28:18;;;;;;;0.20;0.00;;;23.80;16.50;;;;;;6122759;23;20396;-84
2023/04/14 12:30:52;;;;;;;0.35;0.10;;;23.90;16.70;;;;;;6123390;23;20367;-88
2023/04/14 12:33:22;;;;;;;0.43;0.00;;;24.20;16.30;;;;;;6122887;23;20379;-87
2023/04/14 12:35:50;;;;;;;0.50;0.10;;;24.40;15.50;;;;;;6123386;23;20378;-89
2023/04/14 12:38:17;;;;;;;0.65;0.10;;;24.50;15.70;;;;;;6123435;23;20407;-88
2023/04/14 12:40:47;;;;;;;0.20;0.00;;;24.50;14.80;;;;;;6122729;23;20375;-87
2023/04/14 12:43:17;;;;;;;0.10;0.00;;;24.00;13.10;;;;;;6123295;23;20459;-86
2023/04/14 12:45:47;;;;;;;0.80;0.10;;;23.80;14.00;;;;;;6122620;23;20443;-87
2023/04/14 12:48:16;;;;;;;0.50;0.03;;;23.50;14.80;;;;;;6123872;23;20407;-87
2023/04/14 12:50:44;;;;;;;1.60;0.10;;;23.30;15.40;;;;;;6122788;23;20399;-87
2023/04/14 12:53:23;;;;;;;2.00;0.10;;;23.30;14.60;;;;;;6123419;23;20476;-87
2023/04/14 12:56:13;;;;;;;0.70;0.10;;;23.40;15.40;;;;;;6122555;23;20447;-88
2023/04/14 12:58:42;;;;;;;0.73;0.10;;;23.30;15.10;;;;;;6122149;23;20380;-87
2023/04/14 13:01:10;;;;;;;0.80;0.10;;;23.50;15.80;;;;;;6123899;23;20427;-88
2023/04/14 13:03:49;;;;;;;0.70;0.20;;;23.70;15.70;;;;;;6122051;23;20398;-88
2023/04/14 13:06:21;;;;;;;0.52;0.00;;;23.50;15.20;;;;;;6122913;23;20375;-88
2023/04/14 13:08:53;;;;;;;0.20;0.10;;;23.70;15.50;;;;;;6122040;23;20465;-88
2023/04/14 13:11:22;;;;;;;0.45;0.10;;;23.70;14.90;;;;;;6123530;23;20845;-87
2023/04/14 13:13:51;;;;;;;0.70;0.10;;;23.90;15.10;;;;;;6122244;23;20944;-88